DCA weather

Ronald Reagan Washington National Airport
Washington, District of Columbia, United States

Public forecast

Using degrees Fahrenheit for public forecast. Weather courtesy of forecast.io.

METAR (pilot weather report)

Retrieved 2018/01/20 15:52 UTC (37 minutes ago):

KDCA 201552Z 18007KT 10SM FEW150 SCT250 07/M07 A3004 RMK AO2 SLP172 T00671067

TAF (pilot weather forecast)

Retrieved 2018/01/20 12:27 UTC (4 hours ago):

TAF KDCA 201124Z 2012/2118 22004KT P6SM FEW150 FEW250 FM210000 28005KT P6SM FEW200 SCT250 FM211200 VRB03KT P6SM BKN025 FM211300 VRB03KT P6SM SCT025 BKN050